sensor_id;sensor_type;location;lat;lon;timestamp;temperature;humidity
48806;DHT22;34625;47.176;27.548;2022-12-22T00:00:46;20.90;58.80
48806;DHT22;34625;47.176;27.548;2022-12-22T00:03:32;20.70;58.70
48806;DHT22;34625;47.176;27.548;2022-12-22T00:06:16;20.80;58.90
48806;DHT22;34625;47.176;27.548;2022-12-22T00:09:01;20.80;58.70
48806;DHT22;34625;47.176;27.548;2022-12-22T00:11:45;20.80;58.70
48806;DHT22;34625;47.176;27.548;2022-12-22T00:14:30;20.70;58.60
48806;DHT22;34625;47.176;27.548;2022-12-22T00:17:25;20.70;58.70
48806;DHT22;34625;47.176;27.548;2022-12-22T00:20:15;20.60;58.60
48806;DHT22;34625;47.176;27.548;2022-12-22T00:23:01;20.60;58.60
48806;DHT22;34625;47.176;27.548;2022-12-22T00:25:46;20.60;58.20
48806;DHT22;34625;47.176;27.548;2022-12-22T00:28:33;20.60;58.40
48806;DHT22;34625;47.176;27.548;2022-12-22T00:31:19;20.50;58.50
48806;DHT22;34625;47.176;27.548;2022-12-22T00:34:07;20.50;58.40
48806;DHT22;34625;47.176;27.548;2022-12-22T00:36:53;20.50;58.50
48806;DHT22;34625;47.176;27.548;2022-12-22T00:39:38;20.60;58.40
48806;DHT22;34625;47.176;27.548;2022-12-22T00:42:23;20.60;58.20
48806;DHT22;34625;47.176;27.548;2022-12-22T00:45:07;20.70;58.20
48806;DHT22;34625;47.176;27.548;2022-12-22T00:47:52;20.80;58.10
48806;DHT22;34625;47.176;27.548;2022-12-22T00:50:37;20.70;57.90
48806;DHT22;34625;47.176;27.548;2022-12-22T00:53:21;20.70;57.90
48806;DHT22;34625;47.176;27.548;2022-12-22T00:56:07;20.60;57.60
48806;DHT22;34625;47.176;27.548;2022-12-22T00:58:54;20.80;57.90
48806;DHT22;34625;47.176;27.548;2022-12-22T01:01:40;20.80;57.90
48806;DHT22;34625;47.176;27.548;2022-12-22T01:04:24;20.80;57.70
48806;DHT22;34625;47.176;27.548;2022-12-22T01:07:11;20.80;57.60
48806;DHT22;34625;47.176;27.548;2022-12-22T01:09:56;20.80;57.70
48806;DHT22;34625;47.176;27.548;2022-12-22T01:12:41;20.90;57.60
48806;DHT22;34625;47.176;27.548;2022-12-22T01:15:28;20.70;57.40
48806;DHT22;34625;47.176;27.548;2022-12-22T01:18:13;20.90;57.30
48806;DHT22;34625;47.176;27.548;2022-12-22T01:20:58;20.90;57.30
48806;DHT22;34625;47.176;27.548;2022-12-22T01:23:43;20.80;57.10
48806;DHT22;34625;47.176;27.548;2022-12-22T01:26:28;20.90;57.20
48806;DHT22;34625;47.176;27.548;2022-12-22T01:29:12;21.00;57.10
48806;DHT22;34625;47.176;27.548;2022-12-22T01:31:57;20.90;57.00
48806;DHT22;34625;47.176;27.548;2022-12-22T01:34:41;21.00;57.00
48806;DHT22;34625;47.176;27.548;2022-12-22T01:37:26;20.90;56.90
48806;DHT22;34625;47.176;27.548;2022-12-22T01:40:17;20.90;56.80
48806;DHT22;34625;47.176;27.548;2022-12-22T01:43:25;20.90;56.80
48806;DHT22;34625;47.176;27.548;2022-12-22T01:46:22;21.00;56.80
48806;DHT22;34625;47.176;27.548;2022-12-22T01:49:11;20.80;56.60
48806;DHT22;34625;47.176;27.548;2022-12-22T01:51:57;20.80;56.50
48806;DHT22;34625;47.176;27.548;2022-12-22T01:54:42;20.90;56.60
48806;DHT22;34625;47.176;27.548;2022-12-22T01:57:27;20.70;56.60
48806;DHT22;34625;47.176;27.548;2022-12-22T02:00:12;20.70;56.60
48806;DHT22;34625;47.176;27.548;2022-12-22T02:02:58;20.80;56.60
48806;DHT22;34625;47.176;27.548;2022-12-22T02:05:56;20.70;56.70
48806;DHT22;34625;47.176;27.548;2022-12-22T02:08:46;20.80;56.70
48806;DHT22;34625;47.176;27.548;2022-12-22T02:15:04;20.80;56.50
48806;DHT22;34625;47.176;27.548;2022-12-22T02:18:10;20.70;56.40
48806;DHT22;34625;47.176;27.548;2022-12-22T02:21:02;20.80;56.20
48806;DHT22;34625;47.176;27.548;2022-12-22T02:26:53;20.80;56.00
48806;DHT22;34625;47.176;27.548;2022-12-22T02:30:00;20.80;55.90
48806;DHT22;34625;47.176;27.548;2022-12-22T02:32:46;20.70;55.80
48806;DHT22;34625;47.176;27.548;2022-12-22T02:35:39;20.80;55.90
48806;DHT22;34625;47.176;27.548;2022-12-22T02:38:41;20.70;55.90
48806;DHT22;34625;47.176;27.548;2022-12-22T02:41:44;20.70;56.00
48806;DHT22;34625;47.176;27.548;2022-12-22T02:47:47;20.50;55.90
48806;DHT22;34625;47.176;27.548;2022-12-22T02:50:40;20.60;55.90
48806;DHT22;34625;47.176;27.548;2022-12-22T02:53:26;20.60;55.90
48806;DHT22;34625;47.176;27.548;2022-12-22T02:56:12;20.60;55.70
48806;DHT22;34625;47.176;27.548;2022-12-22T02:58:56;20.50;55.70
48806;DHT22;34625;47.176;27.548;2022-12-22T03:01:43;20.50;55.60
48806;DHT22;34625;47.176;27.548;2022-12-22T03:04:28;20.50;55.60
48806;DHT22;34625;47.176;27.548;2022-12-22T03:07:13;20.50;55.80
48806;DHT22;34625;47.176;27.548;2022-12-22T03:09:58;20.60;55.70
48806;DHT22;34625;47.176;27.548;2022-12-22T03:12:42;20.50;55.70
48806;DHT22;34625;47.176;27.548;2022-12-22T03:15:27;20.60;55.60
48806;DHT22;34625;47.176;27.548;2022-12-22T03:18:12;20.50;55.50
48806;DHT22;34625;47.176;27.548;2022-12-22T03:20:57;20.60;55.50
48806;DHT22;34625;47.176;27.548;2022-12-22T03:23:42;20.60;55.40
48806;DHT22;34625;47.176;27.548;2022-12-22T03:26:27;20.60;55.40
48806;DHT22;34625;47.176;27.548;2022-12-22T03:28:54;20.70;55.40
48806;DHT22;34625;47.176;27.548;2022-12-22T03:31:20;20.50;55.30
48806;DHT22;34625;47.176;27.548;2022-12-22T03:33:46;20.50;55.20
48806;DHT22;34625;47.176;27.548;2022-12-22T03:36:12;20.50;55.30
48806;DHT22;34625;47.176;27.548;2022-12-22T03:38:38;20.40;55.20
48806;DHT22;34625;47.176;27.548;2022-12-22T03:41:04;20.40;55.20
48806;DHT22;34625;47.176;27.548;2022-12-22T03:43:30;20.40;55.30
48806;DHT22;34625;47.176;27.548;2022-12-22T03:46:16;20.40;55.40
48806;DHT22;34625;47.176;27.548;2022-12-22T03:48:43;20.40;55.30
48806;DHT22;34625;47.176;27.548;2022-12-22T03:51:30;20.30;55.40
48806;DHT22;34625;47.176;27.548;2022-12-22T03:53:56;20.20;55.30
48806;DHT22;34625;47.176;27.548;2022-12-22T03:56:22;20.30;55.30
48806;DHT22;34625;47.176;27.548;2022-12-22T03:58:48;20.40;55.20
48806;DHT22;34625;47.176;27.548;2022-12-22T04:01:14;20.30;55.10
48806;DHT22;34625;47.176;27.548;2022-12-22T04:03:40;20.20;55.00
48806;DHT22;34625;47.176;27.548;2022-12-22T04:06:05;20.20;55.10
48806;DHT22;34625;47.176;27.548;2022-12-22T04:08:31;20.40;55.40
48806;DHT22;34625;47.176;27.548;2022-12-22T04:10:57;20.40;55.50
48806;DHT22;34625;47.176;27.548;2022-12-22T04:13:42;20.20;55.30
48806;DHT22;34625;47.176;27.548;2022-12-22T04:16:08;20.20;55.20
48806;DHT22;34625;47.176;27.548;2022-12-22T04:18:34;20.20;55.10
48806;DHT22;34625;47.176;27.548;2022-12-22T04:21:00;20.30;55.00
48806;DHT22;34625;47.176;27.548;2022-12-22T04:23:26;20.30;54.90
48806;DHT22;34625;47.176;27.548;2022-12-22T04:25:52;20.50;54.80
48806;DHT22;34625;47.176;27.548;2022-12-22T04:28:18;20.40;54.70
48806;DHT22;34625;47.176;27.548;2022-12-22T04:30:44;20.40;54.70
48806;DHT22;34625;47.176;27.548;2022-12-22T04:33:10;20.40;54.70
48806;DHT22;34625;47.176;27.548;2022-12-22T04:35:36;20.30;54.80
48806;DHT22;34625;47.176;27.548;2022-12-22T04:38:02;20.30;54.90
48806;DHT22;34625;47.176;27.548;2022-12-22T04:40:28;20.30;54.80
48806;DHT22;34625;47.176;27.548;2022-12-22T04:42:54;20.20;55.00
48806;DHT22;34625;47.176;27.548;2022-12-22T04:45:20;20.20;55.20
48806;DHT22;34625;47.176;27.548;2022-12-22T04:47:46;20.20;55.30
48806;DHT22;34625;47.176;27.548;2022-12-22T04:50:12;20.20;55.30
48806;DHT22;34625;47.176;27.548;2022-12-22T04:52:38;20.20;55.40
48806;DHT22;34625;47.176;27.548;2022-12-22T04:55:04;20.10;55.50
48806;DHT22;34625;47.176;27.548;2022-12-22T04:57:31;20.20;55.30
48806;DHT22;34625;47.176;27.548;2022-12-22T04:59:57;20.20;55.20
48806;DHT22;34625;47.176;27.548;2022-12-22T05:02:23;20.30;55.10
48806;DHT22;34625;47.176;27.548;2022-12-22T05:04:49;20.20;54.80
48806;DHT22;34625;47.176;27.548;2022-12-22T05:07:15;20.40;54.80
48806;DHT22;34625;47.176;27.548;2022-12-22T05:09:41;20.30;54.90
48806;DHT22;34625;47.176;27.548;2022-12-22T05:12:07;20.20;54.90
48806;DHT22;34625;47.176;27.548;2022-12-22T05:14:51;20.40;55.00
48806;DHT22;34625;47.176;27.548;2022-12-22T05:17:17;20.30;54.90
48806;DHT22;34625;47.176;27.548;2022-12-22T05:19:43;20.30;54.70
48806;DHT22;34625;47.176;27.548;2022-12-22T05:22:09;20.40;54.70
48806;DHT22;34625;47.176;27.548;2022-12-22T05:24:35;20.30;54.70
48806;DHT22;34625;47.176;27.548;2022-12-22T05:27:01;20.40;54.80
48806;DHT22;34625;47.176;27.548;2022-12-22T05:29:27;20.30;54.90
48806;DHT22;34625;47.176;27.548;2022-12-22T05:31:53;20.30;54.90
48806;DHT22;34625;47.176;27.548;2022-12-22T05:34:19;20.20;54.70
48806;DHT22;34625;47.176;27.548;2022-12-22T05:36:45;20.30;54.80
48806;DHT22;34625;47.176;27.548;2022-12-22T05:39:11;20.30;54.90
48806;DHT22;34625;47.176;27.548;2022-12-22T05:41:37;20.20;55.00
48806;DHT22;34625;47.176;27.548;2022-12-22T05:44:03;20.10;55.30
48806;DHT22;34625;47.176;27.548;2022-12-22T05:46:29;20.20;55.20
48806;DHT22;34625;47.176;27.548;2022-12-22T05:48:55;20.20;54.90
48806;DHT22;34625;47.176;27.548;2022-12-22T05:51:21;20.20;55.00
48806;DHT22;34625;47.176;27.548;2022-12-22T05:53:48;20.10;55.30
48806;DHT22;34625;47.176;27.548;2022-12-22T05:56:14;20.00;55.30
48806;DHT22;34625;47.176;27.548;2022-12-22T05:58:40;20.20;55.60
48806;DHT22;34625;47.176;27.548;2022-12-22T06:01:06;20.10;55.40
48806;DHT22;34625;47.176;27.548;2022-12-22T06:03:32;20.10;55.30
48806;DHT22;34625;47.176;27.548;2022-12-22T06:05:59;20.20;55.00
48806;DHT22;34625;47.176;27.548;2022-12-22T06:08:25;20.10;55.00
48806;DHT22;34625;47.176;27.548;2022-12-22T06:10:53;20.10;55.10
48806;DHT22;34625;47.176;27.548;2022-12-22T06:13:20;20.10;55.20
48806;DHT22;34625;47.176;27.548;2022-12-22T06:15:47;20.00;55.60
48806;DHT22;34625;47.176;27.548;2022-12-22T06:18:13;20.00;55.50
48806;DHT22;34625;47.176;27.548;2022-12-22T06:20:39;20.10;56.00
48806;DHT22;34625;47.176;27.548;2022-12-22T06:23:05;20.10;55.80
48806;DHT22;34625;47.176;27.548;2022-12-22T06:25:31;20.10;55.60
48806;DHT22;34625;47.176;27.548;2022-12-22T06:27:57;20.10;54.70
48806;DHT22;34625;47.176;27.548;2022-12-22T06:30:23;20.10;51.00
48806;DHT22;34625;47.176;27.548;2022-12-22T06:32:49;20.40;46.90
48806;DHT22;34625;47.176;27.548;2022-12-22T06:35:15;20.50;46.00
48806;DHT22;34625;47.176;27.548;2022-12-22T06:37:41;20.50;44.40
48806;DHT22;34625;47.176;27.548;2022-12-22T06:40:08;20.60;46.30
48806;DHT22;34625;47.176;27.548;2022-12-22T06:42:34;20.80;44.10
48806;DHT22;34625;47.176;27.548;2022-12-22T06:45:19;20.80;44.00
48806;DHT22;34625;47.176;27.548;2022-12-22T06:47:45;20.80;44.30
48806;DHT22;34625;47.176;27.548;2022-12-22T06:50:11;20.90;45.80
48806;DHT22;34625;47.176;27.548;2022-12-22T06:52:37;21.00;44.20
48806;DHT22;34625;47.176;27.548;2022-12-22T06:55:04;21.10;57.80
48806;DHT22;34625;47.176;27.548;2022-12-22T06:57:30;21.10;58.60
48806;DHT22;34625;47.176;27.548;2022-12-22T06:59:56;21.10;60.70
48806;DHT22;34625;47.176;27.548;2022-12-22T07:02:22;21.20;62.60
48806;DHT22;34625;47.176;27.548;2022-12-22T07:04:48;21.40;62.20
48806;DHT22;34625;47.176;27.548;2022-12-22T07:07:14;21.50;62.00
48806;DHT22;34625;47.176;27.548;2022-12-22T07:09:40;21.60;60.70
48806;DHT22;34625;47.176;27.548;2022-12-22T07:12:07;21.70;59.40
48806;DHT22;34625;47.176;27.548;2022-12-22T07:14:33;21.60;58.20
48806;DHT22;34625;47.176;27.548;2022-12-22T07:16:59;21.90;57.90
48806;DHT22;34625;47.176;27.548;2022-12-22T07:19:25;21.80;57.10
48806;DHT22;34625;47.176;27.548;2022-12-22T07:21:51;21.70;54.80
48806;DHT22;34625;47.176;27.548;2022-12-22T07:24:17;21.40;57.10
48806;DHT22;34625;47.176;27.548;2022-12-22T07:26:48;21.30;58.80
48806;DHT22;34625;47.176;27.548;2022-12-22T07:29:14;21.20;60.20
48806;DHT22;34625;47.176;27.548;2022-12-22T07:31:40;21.00;60.90
48806;DHT22;34625;47.176;27.548;2022-12-22T07:34:06;20.90;61.90
48806;DHT22;34625;47.176;27.548;2022-12-22T07:36:32;21.00;62.50
48806;DHT22;34625;47.176;27.548;2022-12-22T07:38:58;20.90;62.60
48806;DHT22;34625;47.176;27.548;2022-12-22T07:41:24;20.80;63.00
48806;DHT22;34625;47.176;27.548;2022-12-22T07:44:10;20.80;63.40
48806;DHT22;34625;47.176;27.548;2022-12-22T07:46:37;20.80;64.00
48806;DHT22;34625;47.176;27.548;2022-12-22T07:49:04;20.80;63.30
48806;DHT22;34625;47.176;27.548;2022-12-22T07:51:49;20.70;63.30
48806;DHT22;34625;47.176;27.548;2022-12-22T07:54:16;20.60;63.70
48806;DHT22;34625;47.176;27.548;2022-12-22T07:56:43;20.60;64.10
48806;DHT22;34625;47.176;27.548;2022-12-22T07:59:09;20.60;65.30
48806;DHT22;34625;47.176;27.548;2022-12-22T08:01:35;20.40;65.80
48806;DHT22;34625;47.176;27.548;2022-12-22T08:04:01;20.50;65.60
48806;DHT22;34625;47.176;27.548;2022-12-22T08:06:27;20.60;65.50
48806;DHT22;34625;47.176;27.548;2022-12-22T08:08:54;20.50;66.00
48806;DHT22;34625;47.176;27.548;2022-12-22T08:11:20;20.50;66.70
48806;DHT22;34625;47.176;27.548;2022-12-22T08:13:46;20.50;66.10
48806;DHT22;34625;47.176;27.548;2022-12-22T08:16:13;20.50;65.90
48806;DHT22;34625;47.176;27.548;2022-12-22T08:18:39;20.50;65.60
48806;DHT22;34625;47.176;27.548;2022-12-22T08:21:06;20.50;65.60
48806;DHT22;34625;47.176;27.548;2022-12-22T08:23:33;20.50;65.60
48806;DHT22;34625;47.176;27.548;2022-12-22T08:26:16;20.50;66.50
48806;DHT22;34625;47.176;27.548;2022-12-22T08:28:52;20.50;67.00
48806;DHT22;34625;47.176;27.548;2022-12-22T08:31:20;20.40;66.50
48806;DHT22;34625;47.176;27.548;2022-12-22T08:33:49;20.50;66.50
48806;DHT22;34625;47.176;27.548;2022-12-22T08:36:15;20.40;66.00
48806;DHT22;34625;47.176;27.548;2022-12-22T08:38:41;20.50;66.10
48806;DHT22;34625;47.176;27.548;2022-12-22T08:41:10;20.50;65.40
48806;DHT22;34625;47.176;27.548;2022-12-22T08:43:37;20.50;65.50
48806;DHT22;34625;47.176;27.548;2022-12-22T08:46:03;20.50;65.70
48806;DHT22;34625;47.176;27.548;2022-12-22T08:48:29;20.60;65.10
48806;DHT22;34625;47.176;27.548;2022-12-22T08:50:55;20.40;64.80
48806;DHT22;34625;47.176;27.548;2022-12-22T08:53:21;20.60;65.10
48806;DHT22;34625;47.176;27.548;2022-12-22T08:55:52;20.40;65.30
48806;DHT22;34625;47.176;27.548;2022-12-22T08:58:19;20.60;65.40
48806;DHT22;34625;47.176;27.548;2022-12-22T09:00:45;20.60;65.10
48806;DHT22;34625;47.176;27.548;2022-12-22T09:03:11;20.50;65.20
48806;DHT22;34625;47.176;27.548;2022-12-22T09:05:37;20.60;65.00
48806;DHT22;34625;47.176;27.548;2022-12-22T09:08:04;20.50;65.50
48806;DHT22;34625;47.176;27.548;2022-12-22T09:10:30;20.50;65.40
48806;DHT22;34625;47.176;27.548;2022-12-22T09:12:57;20.40;65.00
48806;DHT22;34625;47.176;27.548;2022-12-22T09:15:23;20.40;65.00
48806;DHT22;34625;47.176;27.548;2022-12-22T09:17:49;20.30;65.10
48806;DHT22;34625;47.176;27.548;2022-12-22T09:20:15;20.40;64.90
48806;DHT22;34625;47.176;27.548;2022-12-22T09:22:41;20.50;65.10
48806;DHT22;34625;47.176;27.548;2022-12-22T09:25:08;20.40;65.10
48806;DHT22;34625;47.176;27.548;2022-12-22T09:27:34;20.30;65.50
48806;DHT22;34625;47.176;27.548;2022-12-22T09:30:00;20.30;65.00
48806;DHT22;34625;47.176;27.548;2022-12-22T09:32:26;20.40;64.90
48806;DHT22;34625;47.176;27.548;2022-12-22T09:34:52;20.40;65.40
48806;DHT22;34625;47.176;27.548;2022-12-22T09:37:18;20.30;65.90
48806;DHT22;34625;47.176;27.548;2022-12-22T09:39:45;20.40;66.00
48806;DHT22;34625;47.176;27.548;2022-12-22T09:42:14;20.30;66.00
48806;DHT22;34625;47.176;27.548;2022-12-22T09:44:44;20.40;65.60
48806;DHT22;34625;47.176;27.548;2022-12-22T09:49:43;20.40;65.40
48806;DHT22;34625;47.176;27.548;2022-12-22T09:54:55;20.30;65.80
48806;DHT22;34625;47.176;27.548;2022-12-22T09:57:23;20.30;65.40
48806;DHT22;34625;47.176;27.548;2022-12-22T09:59:51;20.40;65.50
48806;DHT22;34625;47.176;27.548;2022-12-22T10:05:42;20.50;65.20
48806;DHT22;34625;47.176;27.548;2022-12-22T10:08:12;20.50;64.80
48806;DHT22;34625;47.176;27.548;2022-12-22T10:10:38;20.70;64.70
48806;DHT22;34625;47.176;27.548;2022-12-22T10:13:06;20.60;64.40
48806;DHT22;34625;47.176;27.548;2022-12-22T10:15:40;20.50;64.80
48806;DHT22;34625;47.176;27.548;2022-12-22T10:20:35;20.60;64.70
48806;DHT22;34625;47.176;27.548;2022-12-22T10:23:24;20.50;64.90
48806;DHT22;34625;47.176;27.548;2022-12-22T10:26:07;20.50;64.90
48806;DHT22;34625;47.176;27.548;2022-12-22T10:28:37;20.40;65.10
48806;DHT22;34625;47.176;27.548;2022-12-22T10:33:37;20.30;64.40
48806;DHT22;34625;47.176;27.548;2022-12-22T10:36:04;20.40;64.50
48806;DHT22;34625;47.176;27.548;2022-12-22T10:39:02;20.40;64.30
48806;DHT22;34625;47.176;27.548;2022-12-22T10:41:33;20.40;64.20
48806;DHT22;34625;47.176;27.548;2022-12-22T10:44:03;20.40;64.40
48806;DHT22;34625;47.176;27.548;2022-12-22T10:46:43;20.30;64.20
48806;DHT22;34625;47.176;27.548;2022-12-22T10:51:51;20.40;64.20
48806;DHT22;34625;47.176;27.548;2022-12-22T10:54:32;20.40;64.10
48806;DHT22;34625;47.176;27.548;2022-12-22T10:57:19;20.40;64.00
48806;DHT22;34625;47.176;27.548;2022-12-22T10:59:57;20.40;64.20
48806;DHT22;34625;47.176;27.548;2022-12-22T11:05:06;20.60;63.70
48806;DHT22;34625;47.176;27.548;2022-12-22T11:07:35;20.40;63.50
48806;DHT22;34625;47.176;27.548;2022-12-22T11:27:30;20.20;63.50
48806;DHT22;34625;47.176;27.548;2022-12-22T11:30:11;20.30;63.60
48806;DHT22;34625;47.176;27.548;2022-12-22T11:40:44;20.30;63.20
48806;DHT22;34625;47.176;27.548;2022-12-22T11:46:30;20.40;49.90
48806;DHT22;34625;47.176;27.548;2022-12-22T12:10:46;22.30;50.60
48806;DHT22;34625;47.176;27.548;2022-12-22T12:13:16;22.30;49.80
48806;DHT22;34625;47.176;27.548;2022-12-22T12:16:00;22.50;50.80
48806;DHT22;34625;47.176;27.548;2022-12-22T12:24:06;22.60;37.40
48806;DHT22;34625;47.176;27.548;2022-12-22T12:26:59;22.50;35.60
48806;DHT22;34625;47.176;27.548;2022-12-22T12:29:44;22.60;35.30
48806;DHT22;34625;47.176;27.548;2022-12-22T12:32:17;22.60;37.40
48806;DHT22;34625;47.176;27.548;2022-12-22T12:34:49;22.60;36.80
48806;DHT22;34625;47.176;27.548;2022-12-22T12:37:21;22.60;35.50
48806;DHT22;34625;47.176;27.548;2022-12-22T12:40:33;22.60;35.90
48806;DHT22;34625;47.176;27.548;2022-12-22T12:42:56;22.60;36.10
48806;DHT22;34625;47.176;27.548;2022-12-22T12:50:53;22.80;36.40
48806;DHT22;34625;47.176;27.548;2022-12-22T12:53:21;22.80;39.10
48806;DHT22;34625;47.176;27.548;2022-12-22T13:03:54;22.80;55.60
48806;DHT22;34625;47.176;27.548;2022-12-22T13:11:44;22.70;56.50
48806;DHT22;34625;47.176;27.548;2022-12-22T13:14:10;22.70;56.60
48806;DHT22;34625;47.176;27.548;2022-12-22T13:20:01;22.80;57.20
48806;DHT22;34625;47.176;27.548;2022-12-22T13:22:28;22.50;58.40
48806;DHT22;34625;47.176;27.548;2022-12-22T13:24:55;22.30;58.90
48806;DHT22;34625;47.176;27.548;2022-12-22T13:27:21;22.20;58.70
48806;DHT22;34625;47.176;27.548;2022-12-22T13:29:48;22.20;58.80
48806;DHT22;34625;47.176;27.548;2022-12-22T13:32:35;22.10;59.20
48806;DHT22;34625;47.176;27.548;2022-12-22T13:35:42;22.20;59.30
48806;DHT22;34625;47.176;27.548;2022-12-22T13:38:33;22.10;59.70
48806;DHT22;34625;47.176;27.548;2022-12-22T13:41:02;21.90;60.10
48806;DHT22;34625;47.176;27.548;2022-12-22T13:43:31;21.90;60.40
48806;DHT22;34625;47.176;27.548;2022-12-22T13:46:00;21.90;60.70
48806;DHT22;34625;47.176;27.548;2022-12-22T13:48:46;21.70;60.60
48806;DHT22;34625;47.176;27.548;2022-12-22T13:53:51;21.60;61.30
48806;DHT22;34625;47.176;27.548;2022-12-22T13:56:22;21.60;61.50
48806;DHT22;34625;47.176;27.548;2022-12-22T13:58:58;21.70;62.20
48806;DHT22;34625;47.176;27.548;2022-12-22T14:01:25;21.60;61.60
48806;DHT22;34625;47.176;27.548;2022-12-22T14:03:58;21.60;61.70
48806;DHT22;34625;47.176;27.548;2022-12-22T14:06:37;21.50;62.20
48806;DHT22;34625;47.176;27.548;2022-12-22T14:09:29;21.50;62.30
48806;DHT22;34625;47.176;27.548;2022-12-22T14:14:47;21.50;62.50
48806;DHT22;34625;47.176;27.548;2022-12-22T14:17:26;21.50;62.80
48806;DHT22;34625;47.176;27.548;2022-12-22T14:19:58;21.50;62.80
48806;DHT22;34625;47.176;27.548;2022-12-22T14:22:35;21.50;62.90
48806;DHT22;34625;47.176;27.548;2022-12-22T14:25:12;21.50;63.20
48806;DHT22;34625;47.176;27.548;2022-12-22T14:27:48;21.50;63.30
48806;DHT22;34625;47.176;27.548;2022-12-22T14:30:25;21.40;63.00
48806;DHT22;34625;47.176;27.548;2022-12-22T14:32:53;21.50;63.50
48806;DHT22;34625;47.176;27.548;2022-12-22T14:37:50;21.50;63.30
48806;DHT22;34625;47.176;27.548;2022-12-22T14:40:36;21.50;63.40
48806;DHT22;34625;47.176;27.548;2022-12-22T14:45:47;21.40;63.70
48806;DHT22;34625;47.176;27.548;2022-12-22T14:48:32;21.30;63.90
48806;DHT22;34625;47.176;27.548;2022-12-22T14:51:01;21.30;64.10
48806;DHT22;34625;47.176;27.548;2022-12-22T14:53:44;21.40;64.10
48806;DHT22;34625;47.176;27.548;2022-12-22T14:56:12;21.40;64.50
48806;DHT22;34625;47.176;27.548;2022-12-22T14:58:41;21.50;64.10
48806;DHT22;34625;47.176;27.548;2022-12-22T15:01:23;21.60;63.50
48806;DHT22;34625;47.176;27.548;2022-12-22T15:04:06;21.70;63.00
48806;DHT22;34625;47.176;27.548;2022-12-22T15:06:42;21.80;62.50
48806;DHT22;34625;47.176;27.548;2022-12-22T15:11:54;22.00;62.30
48806;DHT22;34625;47.176;27.548;2022-12-22T15:14:25;22.00;62.00
48806;DHT22;34625;47.176;27.548;2022-12-22T15:16:55;22.10;62.20
48806;DHT22;34625;47.176;27.548;2022-12-22T15:19:22;22.10;62.50
48806;DHT22;34625;47.176;27.548;2022-12-22T15:21:49;22.10;62.30
48806;DHT22;34625;47.176;27.548;2022-12-22T15:24:16;22.20;62.30
48806;DHT22;34625;47.176;27.548;2022-12-22T15:26:44;22.20;66.50
48806;DHT22;34625;47.176;27.548;2022-12-22T15:29:10;22.30;68.60
48806;DHT22;34625;47.176;27.548;2022-12-22T15:31:36;22.30;65.10
48806;DHT22;34625;47.176;27.548;2022-12-22T15:34:05;22.50;60.00
48806;DHT22;34625;47.176;27.548;2022-12-22T15:36:34;23.00;60.10
48806;DHT22;34625;47.176;27.548;2022-12-22T15:39:00;23.10;52.30
48806;DHT22;34625;47.176;27.548;2022-12-22T15:41:26;23.20;52.30
48806;DHT22;34625;47.176;27.548;2022-12-22T15:43:52;23.30;51.50
48806;DHT22;34625;47.176;27.548;2022-12-22T15:46:18;23.30;50.40
48806;DHT22;34625;47.176;27.548;2022-12-22T15:48:46;23.50;50.20
48806;DHT22;34625;47.176;27.548;2022-12-22T15:51:24;23.50;50.20
48806;DHT22;34625;47.176;27.548;2022-12-22T15:53:51;23.70;45.80
48806;DHT22;34625;47.176;27.548;2022-12-22T15:56:20;23.60;44.60
48806;DHT22;34625;47.176;27.548;2022-12-22T15:58:47;23.70;44.60
48806;DHT22;34625;47.176;27.548;2022-12-22T16:01:13;23.60;45.50
48806;DHT22;34625;47.176;27.548;2022-12-22T16:03:39;23.60;43.70
48806;DHT22;34625;47.176;27.548;2022-12-22T16:06:06;23.70;56.20
48806;DHT22;34625;47.176;27.548;2022-12-22T16:08:40;24.10;57.00
48806;DHT22;34625;47.176;27.548;2022-12-22T16:11:07;24.20;55.90
48806;DHT22;34625;47.176;27.548;2022-12-22T16:13:35;24.40;54.70
48806;DHT22;34625;47.176;27.548;2022-12-22T16:16:02;24.50;48.40
48806;DHT22;34625;47.176;27.548;2022-12-22T16:18:28;24.70;45.10
48806;DHT22;34625;47.176;27.548;2022-12-22T16:20:55;24.60;43.40
48806;DHT22;34625;47.176;27.548;2022-12-22T16:23:25;24.70;45.50
48806;DHT22;34625;47.176;27.548;2022-12-22T16:25:53;24.70;43.90
48806;DHT22;34625;47.176;27.548;2022-12-22T16:28:22;24.60;40.80
48806;DHT22;34625;47.176;27.548;2022-12-22T16:30:48;24.50;43.10
48806;DHT22;34625;47.176;27.548;2022-12-22T16:33:15;24.50;41.80
48806;DHT22;34625;47.176;27.548;2022-12-22T16:35:42;24.30;41.10
48806;DHT22;34625;47.176;27.548;2022-12-22T16:38:09;24.40;40.80
48806;DHT22;34625;47.176;27.548;2022-12-22T16:40:44;24.30;39.10
48806;DHT22;34625;47.176;27.548;2022-12-22T16:43:29;24.20;39.10
48806;DHT22;34625;47.176;27.548;2022-12-22T16:45:57;24.10;53.70
48806;DHT22;34625;47.176;27.548;2022-12-22T16:48:50;24.10;56.60
48806;DHT22;34625;47.176;27.548;2022-12-22T16:51:21;23.90;55.80
48806;DHT22;34625;47.176;27.548;2022-12-22T16:53:48;23.70;51.60
48806;DHT22;34625;47.176;27.548;2022-12-22T16:56:20;23.80;42.90
48806;DHT22;34625;47.176;27.548;2022-12-22T16:58:47;23.90;40.90
48806;DHT22;34625;47.176;27.548;2022-12-22T17:03:54;24.10;40.70
48806;DHT22;34625;47.176;27.548;2022-12-22T17:06:21;24.00;41.90
48806;DHT22;34625;47.176;27.548;2022-12-22T17:08:47;24.10;38.50
48806;DHT22;34625;47.176;27.548;2022-12-22T17:11:19;24.20;45.10
48806;DHT22;34625;47.176;27.548;2022-12-22T17:13:46;24.70;43.30
48806;DHT22;34625;47.176;27.548;2022-12-22T17:16:20;25.00;40.20
48806;DHT22;34625;47.176;27.548;2022-12-22T17:18:47;25.10;40.80
48806;DHT22;34625;47.176;27.548;2022-12-22T17:21:16;25.30;46.00
48806;DHT22;34625;47.176;27.548;2022-12-22T17:23:47;25.50;44.50
48806;DHT22;34625;47.176;27.548;2022-12-22T17:26:16;25.70;43.20
48806;DHT22;34625;47.176;27.548;2022-12-22T17:28:44;25.70;43.90
48806;DHT22;34625;47.176;27.548;2022-12-22T17:31:19;25.60;39.50
48806;DHT22;34625;47.176;27.548;2022-12-22T17:33:45;25.50;38.70
48806;DHT22;34625;47.176;27.548;2022-12-22T17:38:48;25.40;44.10
48806;DHT22;34625;47.176;27.548;2022-12-22T17:41:15;25.40;41.60
48806;DHT22;34625;47.176;27.548;2022-12-22T17:43:41;25.30;38.10
48806;DHT22;34625;47.176;27.548;2022-12-22T17:46:19;25.30;36.50
48806;DHT22;34625;47.176;27.548;2022-12-22T17:48:46;25.30;37.30
48806;DHT22;34625;47.176;27.548;2022-12-22T17:51:18;25.20;41.60
48806;DHT22;34625;47.176;27.548;2022-12-22T17:53:45;25.30;37.70
48806;DHT22;34625;47.176;27.548;2022-12-22T17:56:16;25.20;39.10